createdAt,value
2022-10-26T00:08:10.570Z,12.45
2022-10-26T00:18:37.941Z,12.33
2022-10-26T00:29:05.486Z,12.09
2022-10-26T00:39:32.754Z,11.89
2022-10-26T00:50:05.130Z,11.92
2022-10-26T01:00:32.824Z,12.02
2022-10-26T01:11:01.579Z,11.88
2022-10-26T01:21:42.917Z,11.76
2022-10-26T01:32:15.404Z,11.76
2022-10-26T01:42:49.874Z,11.81
2022-10-26T01:53:20.010Z,11.90
2022-10-26T02:03:56.491Z,11.72
2022-10-26T02:14:32.340Z,11.63
2022-10-26T02:25:03.523Z,11.66
2022-10-26T02:35:35.752Z,11.89
2022-10-26T02:46:08.490Z,11.89
2022-10-26T02:56:42.863Z,11.71
2022-10-26T03:07:10.563Z,11.71
2022-10-26T03:17:37.864Z,11.61
2022-10-26T03:28:07.504Z,11.42
2022-10-26T03:38:34.967Z,11.37
2022-10-26T03:49:02.119Z,11.42
2022-10-26T03:59:29.416Z,11.35
2022-10-26T04:09:56.746Z,11.29
2022-10-26T04:20:24.037Z,11.30
2022-10-26T04:30:51.517Z,11.17
2022-10-26T04:41:18.784Z,11.01
2022-10-26T04:51:46.126Z,10.80
2022-10-26T05:02:13.469Z,10.49
2022-10-26T05:12:40.841Z,10.23
2022-10-26T05:23:11.662Z,10.25
2022-10-26T05:33:38.962Z,10.02
2022-10-26T05:44:06.538Z,9.94
2022-10-26T05:54:33.866Z,9.98
2022-10-26T06:05:06.107Z,9.91
2022-10-26T06:15:39.437Z,9.87
2022-10-26T06:26:18.553Z,9.96
2022-10-26T06:36:48.957Z,10.13
2022-10-26T06:47:23.650Z,10.31
2022-10-26T06:57:52.237Z,10.58
2022-10-26T07:08:19.773Z,10.75
2022-10-26T07:18:47.067Z,10.97
2022-10-26T07:29:16.425Z,11.08
2022-10-26T07:39:43.874Z,11.55
2022-10-26T07:50:12.227Z,12.06
2022-10-26T08:00:39.588Z,12.25
2022-10-26T08:11:07.777Z,12.40
2022-10-26T08:21:40.187Z,12.65
2022-10-26T08:32:08.542Z,12.95
2022-10-26T08:42:41.081Z,13.26
2022-10-26T08:53:16.969Z,13.66
2022-10-26T09:03:44.281Z,14.13
2022-10-26T09:14:19.867Z,14.57
2022-10-26T09:24:54.175Z,14.92
2022-10-26T09:35:24.470Z,15.22
2022-10-26T09:45:54.082Z,15.50
2022-10-26T09:56:21.754Z,15.67
2022-10-26T10:06:50.629Z,15.81
2022-10-26T10:17:23.791Z,15.92
2022-10-26T10:27:55.870Z,16.08
2022-10-26T10:38:23.927Z,16.23
2022-10-26T10:48:55.591Z,16.34
2022-10-26T10:59:38.498Z,16.50
2022-10-26T11:10:08.353Z,16.62
2022-10-26T11:20:40.801Z,16.70
2022-10-26T11:31:12.432Z,16.75
2022-10-26T11:41:48.406Z,16.83
2022-10-26T11:52:20.222Z,16.90
2022-10-26T12:02:51.347Z,16.97
2022-10-26T12:13:27.447Z,17.04
2022-10-26T12:24:00.561Z,17.08
2022-10-26T12:35:01.230Z,17.07
2022-10-26T12:45:28.636Z,17.06
2022-10-26T12:56:07.284Z,17.09
2022-10-26T13:06:53.218Z,17.07
2022-10-26T13:17:28.015Z,17.09
2022-10-26T13:28:05.682Z,17.12
2022-10-26T13:38:33.412Z,17.14
2022-10-26T13:59:47.605Z,17.15
2022-10-26T14:10:29.260Z,17.27
2022-10-26T14:21:01.606Z,17.12
2022-10-26T14:31:31.334Z,16.82
2022-10-26T14:42:01.014Z,16.64
2022-10-26T14:52:31.438Z,16.74
2022-10-26T15:02:59.633Z,16.93
2022-10-26T15:13:32.285Z,17.08
2022-10-26T15:24:00.494Z,17.07
2022-10-26T15:34:27.888Z,16.85
2022-10-26T15:44:56.522Z,16.70
2022-10-26T15:55:23.913Z,16.47
2022-10-26T16:05:55.006Z,16.18
2022-10-26T16:16:23.076Z,15.81
2022-10-26T16:26:50.653Z,15.55
2022-10-26T16:37:17.966Z,15.34
2022-10-26T16:47:45.304Z,15.08
2022-10-26T16:58:12.838Z,14.84
2022-10-26T17:08:40.110Z,14.67
2022-10-26T17:19:07.514Z,14.42
2022-10-26T17:29:34.898Z,14.30
2022-10-26T17:40:02.166Z,14.04
2022-10-26T17:50:29.588Z,13.82
2022-10-26T18:00:57.037Z,13.52
2022-10-26T18:11:27.505Z,13.10
2022-10-26T18:21:54.970Z,13.00
2022-10-26T18:32:22.414Z,12.89
2022-10-26T18:42:49.710Z,12.73
2022-10-26T18:53:16.992Z,12.63
2022-10-26T19:03:45.114Z,12.48
2022-10-26T19:14:13.835Z,12.48
2022-10-26T19:24:45.005Z,12.34
2022-10-26T19:35:12.750Z,12.11
2022-10-26T19:45:40.153Z,12.07
2022-10-26T19:56:11.756Z,11.89
2022-10-26T20:06:39.056Z,11.64
2022-10-26T20:17:06.962Z,11.57
2022-10-26T20:27:34.297Z,11.52
2022-10-26T20:38:02.959Z,11.33
2022-10-26T20:48:31.493Z,11.18
2022-10-26T20:59:01.088Z,11.12
2022-10-26T21:09:29.113Z,11.00
2022-10-26T21:19:58.057Z,10.84
2022-10-26T21:30:25.578Z,10.72
2022-10-26T21:40:53.114Z,10.71
2022-10-26T21:51:22.017Z,10.77
2022-10-26T22:01:49.428Z,10.82
2022-10-26T22:12:16.989Z,10.77
2022-10-26T22:22:44.528Z,10.62
2022-10-26T22:33:11.962Z,10.49
2022-10-26T22:43:39.474Z,10.29
2022-10-26T22:54:07.366Z,10.16
2022-10-26T23:04:34.983Z,10.18
2022-10-26T23:15:02.563Z,10.20
2022-10-26T23:25:30.298Z,10.13
2022-10-26T23:35:57.734Z,9.97
2022-10-26T23:56:57.542Z,9.77
